sensor_id;sensor_type;location;lat;lon;timestamp;pressure;altitude;pressure_sealevel;temperature;humidity
81990;BME280;71485;51.638;-0.182;2023-12-07T00:00:17;100515.24;;;18.37;32.91
81990;BME280;71485;51.638;-0.182;2023-12-07T00:02:43;100515.36;;;18.90;32.85
81990;BME280;71485;51.638;-0.182;2023-12-07T00:05:08;100534.66;;;18.88;32.85
81990;BME280;71485;51.638;-0.182;2023-12-07T00:07:35;100521.58;;;18.90;32.84
81990;BME280;71485;51.638;-0.182;2023-12-07T00:09:59;100523.70;;;18.11;32.89
81990;BME280;71485;51.638;-0.182;2023-12-07T00:12:25;100519.38;;;18.85;32.89
81990;BME280;71485;51.638;-0.182;2023-12-07T00:14:51;100511.35;;;18.80;32.94
81990;BME280;71485;51.638;-0.182;2023-12-07T00:17:18;100514.95;;;18.77;32.97
81990;BME280;71485;51.638;-0.182;2023-12-07T00:19:42;100512.84;;;18.76;32.99
81990;BME280;71485;51.638;-0.182;2023-12-07T00:22:08;100506.89;;;18.72;33.01
81990;BME280;71485;51.638;-0.182;2023-12-07T00:24:33;100489.19;;;18.46;33.02
81990;BME280;71485;51.638;-0.182;2023-12-07T00:27:00;100487.84;;;18.25;33.02
81990;BME280;71485;51.638;-0.182;2023-12-07T00:29:24;100493.63;;;18.71;33.02
81990;BME280;71485;51.638;-0.182;2023-12-07T00:31:50;100488.69;;;18.71;33.02
81990;BME280;71485;51.638;-0.182;2023-12-07T00:34:17;100474.16;;;18.46;33.00
81990;BME280;71485;51.638;-0.182;2023-12-07T00:36:42;100472.19;;;18.76;33.00
81990;BME280;71485;51.638;-0.182;2023-12-07T00:39:08;100481.05;;;18.78;32.95
81990;BME280;71485;51.638;-0.182;2023-12-07T00:41:33;100487.72;;;18.71;33.00
81990;BME280;71485;51.638;-0.182;2023-12-07T00:43:59;100480.91;;;18.23;33.03
81990;BME280;71485;51.638;-0.182;2023-12-07T00:46:25;100475.99;;;18.57;35.13
81990;BME280;71485;51.638;-0.182;2023-12-07T00:48:49;100475.00;;;18.85;34.99
81990;BME280;71485;51.638;-0.182;2023-12-07T00:51:15;100466.04;;;18.41;35.00
81990;BME280;71485;51.638;-0.182;2023-12-07T00:53:42;100464.19;;;18.76;35.07
81990;BME280;71485;51.638;-0.182;2023-12-07T00:56:07;100465.31;;;19.02;34.70
81990;BME280;71485;51.638;-0.182;2023-12-07T00:58:32;100459.94;;;18.87;34.48
81990;BME280;71485;51.638;-0.182;2023-12-07T01:01:00;100452.53;;;18.85;34.10
81990;BME280;71485;51.638;-0.182;2023-12-07T01:03:24;100453.51;;;19.31;33.90
81990;BME280;71485;51.638;-0.182;2023-12-07T01:05:49;100458.48;;;19.44;33.61
81990;BME280;71485;51.638;-0.182;2023-12-07T01:08:15;100456.51;;;19.13;33.48
81990;BME280;71485;51.638;-0.182;2023-12-07T01:10:41;100456.14;;;19.25;33.19
81990;BME280;71485;51.638;-0.182;2023-12-07T01:13:06;100454.22;;;19.45;33.01
81990;BME280;71485;51.638;-0.182;2023-12-07T01:15:32;100453.43;;;19.53;33.05
81990;BME280;71485;51.638;-0.182;2023-12-07T01:17:59;100453.72;;;19.51;32.91
81990;BME280;71485;51.638;-0.182;2023-12-07T01:20:25;100457.33;;;19.67;32.61
81990;BME280;71485;51.638;-0.182;2023-12-07T01:22:48;100456.70;;;19.79;32.40
81990;BME280;71485;51.638;-0.182;2023-12-07T01:25:13;100453.57;;;19.80;32.45
81990;BME280;71485;51.638;-0.182;2023-12-07T01:27:40;100452.91;;;19.92;32.62
81990;BME280;71485;51.638;-0.182;2023-12-07T01:30:06;100450.50;;;19.76;32.54
81990;BME280;71485;51.638;-0.182;2023-12-07T01:32:31;100448.87;;;20.04;32.12
81990;BME280;71485;51.638;-0.182;2023-12-07T01:34:57;100442.72;;;19.63;32.15
81990;BME280;71485;51.638;-0.182;2023-12-07T01:37:23;100435.37;;;19.95;31.98
81990;BME280;71485;51.638;-0.182;2023-12-07T01:39:48;100433.83;;;19.99;31.93
81990;BME280;71485;51.638;-0.182;2023-12-07T01:42:13;100437.20;;;19.96;31.53
81990;BME280;71485;51.638;-0.182;2023-12-07T01:44:40;100438.22;;;20.07;31.52
81990;BME280;71485;51.638;-0.182;2023-12-07T01:47:04;100429.98;;;19.76;31.65
81990;BME280;71485;51.638;-0.182;2023-12-07T01:49:32;100433.53;;;20.02;31.43
81990;BME280;71485;51.638;-0.182;2023-12-07T01:51:57;100436.64;;;19.93;31.38
81990;BME280;71485;51.638;-0.182;2023-12-07T01:54:21;100435.02;;;19.89;31.44
81990;BME280;71485;51.638;-0.182;2023-12-07T01:56:47;100430.86;;;19.88;31.68
81990;BME280;71485;51.638;-0.182;2023-12-07T01:59:13;100425.23;;;20.07;31.52
81990;BME280;71485;51.638;-0.182;2023-12-07T02:01:40;100422.03;;;19.87;31.37
81990;BME280;71485;51.638;-0.182;2023-12-07T02:04:04;100422.49;;;19.39;31.78
81990;BME280;71485;51.638;-0.182;2023-12-07T02:06:30;100422.01;;;19.33;32.02
81990;BME280;71485;51.638;-0.182;2023-12-07T02:08:56;100420.57;;;19.09;32.22
81990;BME280;71485;51.638;-0.182;2023-12-07T02:11:21;100418.32;;;19.10;32.44
81990;BME280;71485;51.638;-0.182;2023-12-07T02:13:46;100417.93;;;19.05;32.46
81990;BME280;71485;51.638;-0.182;2023-12-07T02:16:17;100413.33;;;18.92;32.59
81990;BME280;71485;51.638;-0.182;2023-12-07T02:18:44;100413.06;;;19.10;32.63
81990;BME280;71485;51.638;-0.182;2023-12-07T02:21:11;100409.96;;;18.52;32.72
81990;BME280;71485;51.638;-0.182;2023-12-07T02:23:29;100407.51;;;18.74;32.68
81990;BME280;71485;51.638;-0.182;2023-12-07T02:26:02;100407.61;;;18.89;32.53
81990;BME280;71485;51.638;-0.182;2023-12-07T02:28:21;100406.28;;;19.23;32.44
81990;BME280;71485;51.638;-0.182;2023-12-07T02:30:46;100405.87;;;18.99;31.94
81990;BME280;71485;51.638;-0.182;2023-12-07T02:33:12;100407.33;;;19.06;32.11
81990;BME280;71485;51.638;-0.182;2023-12-07T02:35:38;100399.39;;;18.70;32.01
81990;BME280;71485;51.638;-0.182;2023-12-07T02:38:05;100390.04;;;18.50;32.16
81990;BME280;71485;51.638;-0.182;2023-12-07T02:40:29;100381.16;;;18.77;32.12
81990;BME280;71485;51.638;-0.182;2023-12-07T02:42:55;100379.38;;;18.94;32.13
81990;BME280;71485;51.638;-0.182;2023-12-07T02:45:24;100372.32;;;18.87;32.24
81990;BME280;71485;51.638;-0.182;2023-12-07T02:47:45;100374.51;;;19.25;32.07
81990;BME280;71485;51.638;-0.182;2023-12-07T02:50:11;100369.77;;;19.13;31.48
81990;BME280;71485;51.638;-0.182;2023-12-07T02:52:39;100370.38;;;19.36;31.44
81990;BME280;71485;51.638;-0.182;2023-12-07T02:55:04;100375.44;;;19.49;31.19
81990;BME280;71485;51.638;-0.182;2023-12-07T02:57:28;100373.79;;;19.60;31.00
81990;BME280;71485;51.638;-0.182;2023-12-07T02:59:54;100369.34;;;19.53;30.86
81990;BME280;71485;51.638;-0.182;2023-12-07T03:02:21;100365.72;;;19.57;30.97
81990;BME280;71485;51.638;-0.182;2023-12-07T03:04:46;100359.29;;;19.64;30.78
81990;BME280;71485;51.638;-0.182;2023-12-07T03:07:11;100345.82;;;19.48;30.87
81990;BME280;71485;51.638;-0.182;2023-12-07T03:09:36;100344.73;;;19.76;30.61
81990;BME280;71485;51.638;-0.182;2023-12-07T03:12:02;100336.22;;;19.76;30.68
81990;BME280;71485;51.638;-0.182;2023-12-07T03:14:28;100331.47;;;19.74;30.63
81990;BME280;71485;51.638;-0.182;2023-12-07T03:16:55;100322.19;;;19.74;30.49
81990;BME280;71485;51.638;-0.182;2023-12-07T03:19:19;100320.29;;;19.78;30.55
81990;BME280;71485;51.638;-0.182;2023-12-07T03:21:45;100317.24;;;19.75;30.35
81990;BME280;71485;51.638;-0.182;2023-12-07T03:24:11;100321.78;;;19.74;30.52
81990;BME280;71485;51.638;-0.182;2023-12-07T03:26:39;100322.30;;;19.65;30.47
81990;BME280;71485;51.638;-0.182;2023-12-07T03:29:02;100320.08;;;19.40;30.50
81990;BME280;71485;51.638;-0.182;2023-12-07T03:31:29;100316.29;;;19.55;30.59
81990;BME280;71485;51.638;-0.182;2023-12-07T03:33:55;100309.37;;;19.51;30.74
81990;BME280;71485;51.638;-0.182;2023-12-07T03:36:20;100306.46;;;19.54;30.65
81990;BME280;71485;51.638;-0.182;2023-12-07T03:38:46;100295.43;;;19.59;30.60
81990;BME280;71485;51.638;-0.182;2023-12-07T03:41:10;100288.66;;;19.47;30.48
81990;BME280;71485;51.638;-0.182;2023-12-07T03:43:37;100280.40;;;19.71;30.65
81990;BME280;71485;51.638;-0.182;2023-12-07T03:46:04;100263.82;;;19.07;30.89
81990;BME280;71485;51.638;-0.182;2023-12-07T03:48:27;100259.18;;;19.34;30.93
81990;BME280;71485;51.638;-0.182;2023-12-07T03:50:54;100260.72;;;19.15;30.97
81990;BME280;71485;51.638;-0.182;2023-12-07T03:53:19;100266.97;;;19.14;30.86
81990;BME280;71485;51.638;-0.182;2023-12-07T03:55:44;100274.10;;;19.13;30.81
81990;BME280;71485;51.638;-0.182;2023-12-07T03:58:10;100276.03;;;19.19;30.86
81990;BME280;71485;51.638;-0.182;2023-12-07T04:00:36;100268.21;;;19.43;30.92
81990;BME280;71485;51.638;-0.182;2023-12-07T04:03:03;100263.81;;;18.83;31.15
81990;BME280;71485;51.638;-0.182;2023-12-07T04:05:27;100252.02;;;19.31;31.12
81990;BME280;71485;51.638;-0.182;2023-12-07T04:07:53;100247.47;;;19.34;31.10
81990;BME280;71485;51.638;-0.182;2023-12-07T04:10:18;100249.03;;;18.61;31.23
81990;BME280;71485;51.638;-0.182;2023-12-07T04:12:44;100249.81;;;19.08;31.38
81990;BME280;71485;51.638;-0.182;2023-12-07T04:15:10;100261.05;;;18.87;31.26
81990;BME280;71485;51.638;-0.182;2023-12-07T04:17:36;100263.74;;;19.13;31.31
81990;BME280;71485;51.638;-0.182;2023-12-07T04:20:03;100260.26;;;18.74;31.13
81990;BME280;71485;51.638;-0.182;2023-12-07T04:22:27;100257.62;;;18.95;31.24
81990;BME280;71485;51.638;-0.182;2023-12-07T04:24:53;100256.23;;;18.68;31.12
81990;BME280;71485;51.638;-0.182;2023-12-07T04:27:20;100256.19;;;18.54;31.53
81990;BME280;71485;51.638;-0.182;2023-12-07T04:29:44;100258.17;;;18.56;31.82
81990;BME280;71485;51.638;-0.182;2023-12-07T04:32:11;100257.32;;;18.40;32.07
81990;BME280;71485;51.638;-0.182;2023-12-07T04:34:35;100250.16;;;18.65;32.10
81990;BME280;71485;51.638;-0.182;2023-12-07T04:37:05;100254.97;;;18.45;32.11
81990;BME280;71485;51.638;-0.182;2023-12-07T04:39:28;100250.84;;;18.53;32.08
81990;BME280;71485;51.638;-0.182;2023-12-07T04:41:52;100243.40;;;18.69;31.98
81990;BME280;71485;51.638;-0.182;2023-12-07T04:44:20;100238.85;;;18.81;31.88
81990;BME280;71485;51.638;-0.182;2023-12-07T04:46:43;100234.59;;;18.90;31.80
81990;BME280;71485;51.638;-0.182;2023-12-07T04:49:09;100222.40;;;18.98;31.70
81990;BME280;71485;51.638;-0.182;2023-12-07T04:51:35;100216.96;;;19.02;31.69
81990;BME280;71485;51.638;-0.182;2023-12-07T04:54:01;100216.24;;;18.62;31.65
81990;BME280;71485;51.638;-0.182;2023-12-07T04:56:26;100200.59;;;18.89;31.59
81990;BME280;71485;51.638;-0.182;2023-12-07T04:58:52;100200.75;;;19.17;31.56
81990;BME280;71485;51.638;-0.182;2023-12-07T05:01:21;100195.24;;;19.23;31.53
81990;BME280;71485;51.638;-0.182;2023-12-07T05:03:44;100198.60;;;19.06;31.46
81990;BME280;71485;51.638;-0.182;2023-12-07T05:06:09;100205.19;;;19.13;31.44
81990;BME280;71485;51.638;-0.182;2023-12-07T05:08:35;100201.50;;;18.90;31.43
81990;BME280;71485;51.638;-0.182;2023-12-07T05:11:00;100192.93;;;18.98;31.40
81990;BME280;71485;51.638;-0.182;2023-12-07T05:13:28;100190.12;;;18.98;31.35
81990;BME280;71485;51.638;-0.182;2023-12-07T05:15:52;100188.68;;;19.27;31.34
81990;BME280;71485;51.638;-0.182;2023-12-07T05:18:19;100182.58;;;19.10;31.28
81990;BME280;71485;51.638;-0.182;2023-12-07T05:20:43;100176.65;;;19.61;31.32
81990;BME280;71485;51.638;-0.182;2023-12-07T05:23:09;100179.74;;;19.18;31.28
81990;BME280;71485;51.638;-0.182;2023-12-07T05:25:35;100179.15;;;19.19;31.29
81990;BME280;71485;51.638;-0.182;2023-12-07T05:28:01;100179.99;;;19.24;31.22
81990;BME280;71485;51.638;-0.182;2023-12-07T05:30:26;100182.55;;;19.24;31.23
81990;BME280;71485;51.638;-0.182;2023-12-07T05:32:51;100184.52;;;19.31;31.20
81990;BME280;71485;51.638;-0.182;2023-12-07T05:35:17;100187.65;;;19.30;31.18
81990;BME280;71485;51.638;-0.182;2023-12-07T05:37:49;100187.08;;;19.25;31.21
81990;BME280;71485;51.638;-0.182;2023-12-07T05:40:10;100184.00;;;19.33;31.20
81990;BME280;71485;51.638;-0.182;2023-12-07T05:42:34;100183.86;;;19.28;31.23
81990;BME280;71485;51.638;-0.182;2023-12-07T05:45:01;100183.97;;;19.01;31.19
81990;BME280;71485;51.638;-0.182;2023-12-07T05:47:26;100182.57;;;19.29;31.22
81990;BME280;71485;51.638;-0.182;2023-12-07T05:49:51;100180.34;;;19.30;31.20
81990;BME280;71485;51.638;-0.182;2023-12-07T05:52:18;100176.16;;;19.55;31.23
81990;BME280;71485;51.638;-0.182;2023-12-07T05:54:42;100175.84;;;19.18;31.26
81990;BME280;71485;51.638;-0.182;2023-12-07T05:57:08;100173.39;;;19.15;31.33
81990;BME280;71485;51.638;-0.182;2023-12-07T05:59:37;100168.49;;;19.38;31.36
81990;BME280;71485;51.638;-0.182;2023-12-07T06:02:01;100166.65;;;18.84;31.46
81990;BME280;71485;51.638;-0.182;2023-12-07T06:04:26;100173.33;;;19.14;31.46
81990;BME280;71485;51.638;-0.182;2023-12-07T06:06:55;100163.28;;;19.39;31.50
81990;BME280;71485;51.638;-0.182;2023-12-07T06:09:16;100152.66;;;19.12;31.57
81990;BME280;71485;51.638;-0.182;2023-12-07T06:11:42;100144.40;;;19.36;31.58
81990;BME280;71485;51.638;-0.182;2023-12-07T06:14:07;100138.47;;;19.11;31.63
81990;BME280;71485;51.638;-0.182;2023-12-07T06:16:34;100138.37;;;19.35;31.67
81990;BME280;71485;51.638;-0.182;2023-12-07T06:18:59;100136.46;;;19.17;31.63
81990;BME280;71485;51.638;-0.182;2023-12-07T06:21:24;100135.15;;;19.15;31.65
81990;BME280;71485;51.638;-0.182;2023-12-07T06:23:51;100131.43;;;19.15;31.67
81990;BME280;71485;51.638;-0.182;2023-12-07T06:26:17;100118.53;;;19.38;31.69
81990;BME280;71485;51.638;-0.182;2023-12-07T06:28:41;100112.58;;;19.18;31.67
81990;BME280;71485;51.638;-0.182;2023-12-07T06:31:07;100101.65;;;19.18;31.69
81990;BME280;71485;51.638;-0.182;2023-12-07T06:33:33;100094.61;;;19.77;31.63
81990;BME280;71485;51.638;-0.182;2023-12-07T06:35:58;100093.81;;;18.89;31.46
81990;BME280;71485;51.638;-0.182;2023-12-07T06:38:24;100095.68;;;19.27;31.44
81990;BME280;71485;51.638;-0.182;2023-12-07T06:40:50;100097.97;;;19.69;31.44
81990;BME280;71485;51.638;-0.182;2023-12-07T06:43:20;100095.84;;;19.20;31.43
81990;BME280;71485;51.638;-0.182;2023-12-07T06:45:41;100094.92;;;19.08;31.48
81990;BME280;71485;51.638;-0.182;2023-12-07T06:48:06;100092.25;;;19.07;31.48
81990;BME280;71485;51.638;-0.182;2023-12-07T06:50:32;100109.04;;;19.02;31.51
81990;BME280;71485;51.638;-0.182;2023-12-07T06:52:59;100112.87;;;18.81;31.42
81990;BME280;71485;51.638;-0.182;2023-12-07T06:55:25;100117.37;;;19.46;31.46
81990;BME280;71485;51.638;-0.182;2023-12-07T06:57:49;100122.44;;;19.37;31.52
81990;BME280;71485;51.638;-0.182;2023-12-07T07:00:16;100135.86;;;18.84;31.59
81990;BME280;71485;51.638;-0.182;2023-12-07T07:02:42;100135.56;;;19.05;31.62
81990;BME280;71485;51.638;-0.182;2023-12-07T07:05:07;100130.73;;;18.74;31.70
81990;BME280;71485;51.638;-0.182;2023-12-07T07:07:32;100132.35;;;18.98;31.70
81990;BME280;71485;51.638;-0.182;2023-12-07T07:09:58;100126.46;;;18.77;31.65
81990;BME280;71485;51.638;-0.182;2023-12-07T07:12:23;100123.33;;;19.19;31.74
81990;BME280;71485;51.638;-0.182;2023-12-07T07:14:49;100115.40;;;19.15;31.82
81990;BME280;71485;51.638;-0.182;2023-12-07T07:17:16;100113.85;;;19.10;31.89
81990;BME280;71485;51.638;-0.182;2023-12-07T07:19:45;100111.45;;;18.83;31.93
81990;BME280;71485;51.638;-0.182;2023-12-07T07:22:05;100111.91;;;18.79;31.97
81990;BME280;71485;51.638;-0.182;2023-12-07T07:24:30;100106.12;;;19.00;32.02
81990;BME280;71485;51.638;-0.182;2023-12-07T07:26:58;100106.58;;;18.99;32.03
81990;BME280;71485;51.638;-0.182;2023-12-07T07:29:22;100105.03;;;18.99;32.02
81990;BME280;71485;51.638;-0.182;2023-12-07T07:31:47;100104.28;;;18.72;32.05
81990;BME280;71485;51.638;-0.182;2023-12-07T07:34:13;100103.30;;;18.95;32.04
81990;BME280;71485;51.638;-0.182;2023-12-07T07:36:39;100095.52;;;18.93;32.05
81990;BME280;71485;51.638;-0.182;2023-12-07T07:39:08;100090.43;;;18.91;32.06
81990;BME280;71485;51.638;-0.182;2023-12-07T07:41:29;100091.82;;;18.85;32.13
81990;BME280;71485;51.638;-0.182;2023-12-07T07:43:55;100091.62;;;18.87;32.12
81990;BME280;71485;51.638;-0.182;2023-12-07T07:46:20;100089.28;;;18.62;32.11
81990;BME280;71485;51.638;-0.182;2023-12-07T07:48:45;100086.70;;;18.90;32.06
81990;BME280;71485;51.638;-0.182;2023-12-07T07:51:11;100082.13;;;18.83;32.10
81990;BME280;71485;51.638;-0.182;2023-12-07T07:53:37;100081.15;;;19.08;32.11
81990;BME280;71485;51.638;-0.182;2023-12-07T07:56:02;100070.71;;;18.37;32.09
81990;BME280;71485;51.638;-0.182;2023-12-07T07:58:27;100066.18;;;18.84;32.09
81990;BME280;71485;51.638;-0.182;2023-12-07T08:00:55;100062.73;;;18.61;32.08
81990;BME280;71485;51.638;-0.182;2023-12-07T08:03:19;100053.01;;;18.60;32.09
81990;BME280;71485;51.638;-0.182;2023-12-07T08:05:44;100043.53;;;18.87;32.06
81990;BME280;71485;51.638;-0.182;2023-12-07T08:08:10;100050.26;;;18.89;32.04
81990;BME280;71485;51.638;-0.182;2023-12-07T08:10:37;100051.63;;;18.63;32.07
81990;BME280;71485;51.638;-0.182;2023-12-07T08:13:02;100048.61;;;18.67;32.01
81990;BME280;71485;51.638;-0.182;2023-12-07T08:15:29;100050.93;;;18.87;32.05
81990;BME280;71485;51.638;-0.182;2023-12-07T08:17:53;100054.83;;;19.07;32.10
81990;BME280;71485;51.638;-0.182;2023-12-07T08:20:19;100049.13;;;18.82;32.11
81990;BME280;71485;51.638;-0.182;2023-12-07T08:22:44;100051.72;;;18.81;32.13
81990;BME280;71485;51.638;-0.182;2023-12-07T08:25:11;100046.25;;;18.57;32.14
81990;BME280;71485;51.638;-0.182;2023-12-07T08:27:38;100039.66;;;18.79;32.15
81990;BME280;71485;51.638;-0.182;2023-12-07T08:30:02;100030.19;;;18.31;32.16
81990;BME280;71485;51.638;-0.182;2023-12-07T08:32:27;100029.52;;;19.05;32.15
81990;BME280;71485;51.638;-0.182;2023-12-07T08:34:53;100029.09;;;18.72;32.02
81990;BME280;71485;51.638;-0.182;2023-12-07T08:37:19;100020.18;;;19.11;31.88
81990;BME280;71485;51.638;-0.182;2023-12-07T08:39:45;100016.98;;;19.25;31.74
81990;BME280;71485;51.638;-0.182;2023-12-07T08:42:10;100010.29;;;19.13;31.68
81990;BME280;71485;51.638;-0.182;2023-12-07T08:44:36;100005.82;;;18.91;31.64
81990;BME280;71485;51.638;-0.182;2023-12-07T08:47:01;100004.09;;;19.00;32.11
81990;BME280;71485;51.638;-0.182;2023-12-07T08:49:26;100005.33;;;19.10;32.72
81990;BME280;71485;51.638;-0.182;2023-12-07T08:51:54;99999.61;;;19.40;33.17
81990;BME280;71485;51.638;-0.182;2023-12-07T08:54:18;99999.66;;;19.20;33.23
81990;BME280;71485;51.638;-0.182;2023-12-07T08:56:44;99996.72;;;19.27;33.17
81990;BME280;71485;51.638;-0.182;2023-12-07T08:59:09;99994.56;;;19.29;33.21
81990;BME280;71485;51.638;-0.182;2023-12-07T09:01:35;99990.27;;;19.29;33.20
81990;BME280;71485;51.638;-0.182;2023-12-07T09:04:00;99980.07;;;19.10;33.13
81990;BME280;71485;51.638;-0.182;2023-12-07T09:06:25;99969.99;;;19.85;33.01
81990;BME280;71485;51.638;-0.182;2023-12-07T09:08:51;99960.70;;;19.40;32.95
81990;BME280;71485;51.638;-0.182;2023-12-07T09:11:15;99956.40;;;19.40;32.88
81990;BME280;71485;51.638;-0.182;2023-12-07T09:13:40;99954.19;;;19.70;32.80
81990;BME280;71485;51.638;-0.182;2023-12-07T09:16:07;99946.64;;;19.45;32.77
81990;BME280;71485;51.638;-0.182;2023-12-07T09:18:33;99946.54;;;19.49;32.71
81990;BME280;71485;51.638;-0.182;2023-12-07T09:20:58;99942.96;;;19.31;32.60
81990;BME280;71485;51.638;-0.182;2023-12-07T09:23:22;99929.37;;;19.52;32.59
81990;BME280;71485;51.638;-0.182;2023-12-07T09:25:49;99931.81;;;19.53;32.53
81990;BME280;71485;51.638;-0.182;2023-12-07T09:28:13;99925.21;;;19.49;32.54
81990;BME280;71485;51.638;-0.182;2023-12-07T09:30:38;99924.89;;;19.77;32.51
81990;BME280;71485;51.638;-0.182;2023-12-07T09:33:04;99914.49;;;19.52;32.51
81990;BME280;71485;51.638;-0.182;2023-12-07T09:35:30;99916.70;;;19.56;32.41
81990;BME280;71485;51.638;-0.182;2023-12-07T09:37:57;99914.46;;;19.57;32.39
81990;BME280;71485;51.638;-0.182;2023-12-07T09:40:22;99910.48;;;19.60;32.39
81990;BME280;71485;51.638;-0.182;2023-12-07T09:42:46;99907.08;;;19.83;32.36
81990;BME280;71485;51.638;-0.182;2023-12-07T09:45:13;99904.46;;;19.60;32.37
81990;BME280;71485;51.638;-0.182;2023-12-07T09:47:37;99900.95;;;19.64;32.38
81990;BME280;71485;51.638;-0.182;2023-12-07T09:50:03;99900.52;;;19.56;32.44
81990;BME280;71485;51.638;-0.182;2023-12-07T09:52:29;99900.45;;;19.88;33.18
81990;BME280;71485;51.638;-0.182;2023-12-07T09:54:55;99890.17;;;19.75;33.24
81990;BME280;71485;51.638;-0.182;2023-12-07T09:57:19;99891.96;;;20.01;33.33
81990;BME280;71485;51.638;-0.182;2023-12-07T09:59:44;99892.95;;;20.08;33.16
81990;BME280;71485;51.638;-0.182;2023-12-07T10:02:10;99891.84;;;20.14;33.04
81990;BME280;71485;51.638;-0.182;2023-12-07T10:04:35;99884.80;;;19.71;32.92
81990;BME280;71485;51.638;-0.182;2023-12-07T10:07:00;99885.90;;;19.73;32.84
81990;BME280;71485;51.638;-0.182;2023-12-07T10:09:26;99879.00;;;20.16;32.87
81990;BME280;71485;51.638;-0.182;2023-12-07T10:12:02;99884.63;;;20.12;32.87
81990;BME280;71485;51.638;-0.182;2023-12-07T10:14:17;99890.53;;;20.16;32.76
81990;BME280;71485;51.638;-0.182;2023-12-07T10:16:52;99887.67;;;20.16;32.71
81990;BME280;71485;51.638;-0.182;2023-12-07T10:19:13;99889.32;;;19.91;32.61
81990;BME280;71485;51.638;-0.182;2023-12-07T10:21:34;99883.84;;;19.59;32.61
81990;BME280;71485;51.638;-0.182;2023-12-07T10:24:00;99881.06;;;19.84;32.59
81990;BME280;71485;51.638;-0.182;2023-12-07T10:26:31;99874.04;;;19.92;32.46
81990;BME280;71485;51.638;-0.182;2023-12-07T10:28:51;99868.89;;;20.18;32.42
81990;BME280;71485;51.638;-0.182;2023-12-07T10:31:18;99861.16;;;19.69;32.34
81990;BME280;71485;51.638;-0.182;2023-12-07T10:33:47;99854.72;;;20.17;32.32
81990;BME280;71485;51.638;-0.182;2023-12-07T10:36:09;99847.40;;;19.96;32.28
81990;BME280;71485;51.638;-0.182;2023-12-07T10:38:34;99844.89;;;20.22;32.22
81990;BME280;71485;51.638;-0.182;2023-12-07T10:41:05;99826.08;;;19.76;32.21
81990;BME280;71485;51.638;-0.182;2023-12-07T10:43:26;99825.99;;;20.04;32.12
81990;BME280;71485;51.638;-0.182;2023-12-07T10:45:51;99810.88;;;20.19;32.06
81990;BME280;71485;51.638;-0.182;2023-12-07T10:48:17;99808.01;;;19.90;32.15
81990;BME280;71485;51.638;-0.182;2023-12-07T10:50:46;99800.86;;;19.83;32.09
81990;BME280;71485;51.638;-0.182;2023-12-07T10:53:10;99802.38;;;19.75;32.11
81990;BME280;71485;51.638;-0.182;2023-12-07T10:55:40;99791.92;;;19.74;32.10
81990;BME280;71485;51.638;-0.182;2023-12-07T10:58:01;99788.21;;;19.50;32.04
81990;BME280;71485;51.638;-0.182;2023-12-07T11:00:25;99793.65;;;19.76;31.99
81990;BME280;71485;51.638;-0.182;2023-12-07T11:02:51;99796.01;;;20.00;31.94
81990;BME280;71485;51.638;-0.182;2023-12-07T11:05:16;99794.54;;;19.76;31.92
81990;BME280;71485;51.638;-0.182;2023-12-07T11:07:50;99806.69;;;20.01;31.87
81990;BME280;71485;51.638;-0.182;2023-12-07T11:10:14;99797.76;;;19.76;31.81
81990;BME280;71485;51.638;-0.182;2023-12-07T11:12:36;99782.64;;;19.98;31.79
81990;BME280;71485;51.638;-0.182;2023-12-07T11:14:59;99777.77;;;19.68;31.78
81990;BME280;71485;51.638;-0.182;2023-12-07T11:17:24;99780.48;;;19.90;31.76
81990;BME280;71485;51.638;-0.182;2023-12-07T11:19:49;99777.33;;;19.91;31.76
81990;BME280;71485;51.638;-0.182;2023-12-07T11:22:15;99764.20;;;19.66;31.73
81990;BME280;71485;51.638;-0.182;2023-12-07T11:27:07;99747.61;;;19.85;31.68
81990;BME280;71485;51.638;-0.182;2023-12-07T11:29:32;99753.29;;;20.08;31.65
81990;BME280;71485;51.638;-0.182;2023-12-07T11:32:01;99745.44;;;19.33;31.68
81990;BME280;71485;51.638;-0.182;2023-12-07T11:34:33;99736.88;;;19.78;31.64
81990;BME280;71485;51.638;-0.182;2023-12-07T11:36:51;99738.32;;;19.81;31.65
81990;BME280;71485;51.638;-0.182;2023-12-07T11:39:16;99737.83;;;19.80;31.58
81990;BME280;71485;51.638;-0.182;2023-12-07T11:41:43;99742.49;;;19.54;31.59
81990;BME280;71485;51.638;-0.182;2023-12-07T11:44:06;99747.21;;;19.75;31.56
81990;BME280;71485;51.638;-0.182;2023-12-07T11:46:31;99731.26;;;19.77;31.57
81990;BME280;71485;51.638;-0.182;2023-12-07T11:48:57;99720.90;;;19.81;31.47
81990;BME280;71485;51.638;-0.182;2023-12-07T11:51:22;99721.00;;;19.59;31.49
81990;BME280;71485;51.638;-0.182;2023-12-07T11:53:49;99722.36;;;19.84;31.45
81990;BME280;71485;51.638;-0.182;2023-12-07T11:56:13;99713.40;;;19.85;31.40
81990;BME280;71485;51.638;-0.182;2023-12-07T11:58:39;99703.17;;;19.84;31.35
81990;BME280;71485;51.638;-0.182;2023-12-07T12:01:06;99703.01;;;19.59;31.31
81990;BME280;71485;51.638;-0.182;2023-12-07T12:03:31;99702.30;;;19.82;31.31
81990;BME280;71485;51.638;-0.182;2023-12-07T12:05:56;99686.14;;;20.29;31.30
81990;BME280;71485;51.638;-0.182;2023-12-07T12:08:23;99683.28;;;19.58;31.30
81990;BME280;71485;51.638;-0.182;2023-12-07T12:10:48;99666.86;;;19.84;31.30
81990;BME280;71485;51.638;-0.182;2023-12-07T12:13:13;99660.73;;;19.61;31.29
81990;BME280;71485;51.638;-0.182;2023-12-07T12:15:39;99658.12;;;19.86;31.28
81990;BME280;71485;51.638;-0.182;2023-12-07T12:18:05;99651.37;;;19.90;31.22
81990;BME280;71485;51.638;-0.182;2023-12-07T12:20:30;99654.70;;;19.86;31.23
81990;BME280;71485;51.638;-0.182;2023-12-07T12:22:56;99650.83;;;19.61;31.27
81990;BME280;71485;51.638;-0.182;2023-12-07T12:25:21;99651.75;;;19.82;31.25
81990;BME280;71485;51.638;-0.182;2023-12-07T12:27:48;99643.64;;;19.75;31.29
81990;BME280;71485;51.638;-0.182;2023-12-07T12:30:13;99647.89;;;19.68;31.39
81990;BME280;71485;51.638;-0.182;2023-12-07T12:32:43;99645.41;;;19.65;31.42
81990;BME280;71485;51.638;-0.182;2023-12-07T12:35:04;99642.24;;;19.60;31.44